Archival Weather

Granbury Rgnl

Granbury, Texas (KGDJ)

Report from: Monday, January 29, 2024 2:15 PM UTC
Current time: Tuesday, June 18, 2024 12:02 PM UTC

Current weather – Weather history – Daily summaries
Weather forecast

Temperature1.6°C (34.9°F)
Dew point0.5°C (32.9°F)
Winds Calm
Visibility10 mi. (16.1 km)
Clouds Sky clear
Altimeter30.35 in.Hg (1028 mB)
Relative humidity92 %
Density altitude-2,030 ft. (-619 m)
Remarks Fully automated report
Automated weather observing station with precipitation discriminator
Flight conditions Visual Meteorological Conditions
Raw dataKGDJ 291415Z AUTO 00000KT 10SM CLR 02/01 A3035 RMK AO2 T00160005
An error has occurred. This application may no longer respond until reloaded. Reload 🗙